Time;durP1;ratioP1;P1;durP2;ratioP2;P2;SDS_P1;SDS_P2;PMS_P1;PMS_P2;Temp;Humidity;BMP_temperature;BMP_pressure;BME280_temperature;BME280_humidity;BME280_pressure;Samples;Min_cycle;Max_cycle;Signal;HPM_P1;HPM_P2
2021/09/27 00:01:20;;;;;;;21.67;10.87;;;;;;;14.25;70.71;101077.44;126344;1099;104277;-80
2021/09/27 00:03:51;;;;;;;20.53;11.30;;;;;;;14.26;71.23;101079.23;126307;1099;104595;-80
2021/09/27 00:06:21;;;;;;;23.30;11.93;;;;;;;14.24;70.72;101072.99;126313;1099;104252;-80
2021/09/27 00:08:52;;;;;;;22.57;11.67;;;;;;;14.22;71.14;101074.70;126284;1099;104166;-80
2021/09/27 00:11:26;;;;;;;23.90;11.87;;;;;;;14.22;72.04;101074.70;126355;1099;104192;-80
2021/09/27 00:14:00;;;;;;;21.17;11.63;;;;;;;14.26;71.72;101075.67;126336;1099;104143;-80
2021/09/27 00:16:32;;;;;;;22.90;12.03;;;;;;;14.26;71.04;101066.04;126339;1099;104143;-80
2021/09/27 00:19:03;;;;;;;24.50;12.43;;;;;;;14.26;71.64;101065.12;126306;1099;104162;-80
2021/09/27 00:21:36;;;;;;;21.87;11.30;;;;;;;14.26;71.96;101065.12;126350;1099;104277;-80
2021/09/27 00:24:08;;;;;;;22.67;11.97;;;;;;;14.22;71.23;101066.78;126303;1099;104300;-80
2021/09/27 00:26:39;;;;;;;20.00;11.35;;;;;;;14.18;71.83;101063.17;126365;1099;105144;-81
2021/09/27 00:29:09;;;;;;;23.47;11.83;;;;;;;14.15;71.31;101067.47;126292;1099;104146;-79
2021/09/27 00:31:40;;;;;;;22.60;11.60;;;;;;;14.11;71.90;101068.22;126370;1098;104206;-81
2021/09/27 00:34:12;;;;;;;25.97;12.00;;;;;;;14.10;72.22;101069.05;126339;1099;104197;-81
2021/09/27 00:36:43;;;;;;;22.77;10.33;;;;;;;14.07;71.81;101068.95;126377;1099;104153;-80
2021/09/27 00:39:14;;;;;;;21.43;11.37;;;;;;;14.03;72.62;101063.59;126308;1098;104244;-80
2021/09/27 00:41:45;;;;;;;21.80;11.83;;;;;;;14.02;72.12;101064.45;126307;1099;104198;-81
2021/09/27 00:44:16;;;;;;;23.73;11.63;;;;;;;14.06;72.12;101059.27;126351;1099;104152;-80
2021/09/27 00:46:46;;;;;;;21.43;11.17;;;;;;;14.11;71.82;101058.55;126320;1099;104222;-80
2021/09/27 00:49:17;;;;;;;22.77;11.40;;;;;;;14.13;72.36;101066.50;126323;1099;104143;-81
2021/09/27 00:51:51;;;;;;;25.77;11.80;;;;;;;14.10;72.71;101056.77;126349;1099;104143;-80
2021/09/27 00:54:25;;;;;;;25.27;10.63;;;;;;;14.10;72.71;101069.05;126328;1099;104595;-80
2021/09/27 00:56:55;;;;;;;;;;;;;;;14.06;71.71;101073.35;126385;1096;104172;-79
2021/09/27 00:59:28;;;;;;;21.83;11.43;;;;;;;14.02;72.25;101072.38;126315;1099;104162;-80
2021/09/27 01:01:59;;;;;;;22.47;11.13;;;;;;;13.97;73.08;101075.70;126331;1099;104175;-80
2021/09/27 01:04:30;;;;;;;23.53;11.33;;;;;;;13.92;72.74;101069.40;125299;1099;104316;-80
2021/09/27 01:07:20;;;;;;;23.63;11.20;;;;;;;13.89;72.90;101075.47;125256;1099;104309;-81
2021/09/27 01:10:08;;;;;;;24.23;11.53;;;;;;;13.83;72.95;101078.80;125725;1098;104472;-79
2021/09/27 01:12:58;;;;;;;25.20;10.60;;;;;;;13.79;72.03;101076.01;125281;1099;104233;-80
2021/09/27 01:15:38;;;;;;;21.57;11.13;;;;;;;13.77;72.54;101075.96;125306;1099;104321;-80
2021/09/27 01:18:21;;;;;;;20.70;11.03;;;;;;;13.74;72.74;101085.53;125301;1102;104329;-80
2021/09/27 01:21:19;;;;;;;22.63;11.37;;;;;;;13.70;72.68;101080.98;125263;1099;104473;-80
2021/09/27 01:24:16;;;;;;;20.70;10.80;;;;;;;13.65;72.87;101080.87;125309;1099;104335;-80
2021/09/27 01:27:17;;;;;;;21.23;11.07;;;;;;;13.61;72.98;101082.49;125270;1099;104265;-81
2021/09/27 01:30:10;;;;;;;22.27;10.97;;;;;;;13.62;72.72;101081.66;125343;1099;104216;-80
2021/09/27 01:32:44;;;;;;;21.67;10.73;;;;;;;13.62;72.90;101079.02;125250;1102;104179;-80
2021/09/27 01:35:32;;;;;;;26.90;11.13;;;;;;;13.64;72.79;101081.70;125365;1102;104447;-81
2021/09/27 01:38:24;;;;;;;20.57;10.83;;;;;;;13.63;73.42;101077.27;126211;1099;104181;-79
2021/09/27 01:41:07;;;;;;;25.10;10.97;;;;;;;13.61;72.89;101073.70;126125;1099;104182;-80
2021/09/27 01:43:45;;;;;;;20.30;10.55;;;;;;;13.54;73.21;101075.25;126220;1099;104201;-80
2021/09/27 01:46:26;;;;;;;22.70;11.13;;;;;;;13.48;73.51;101077.68;126231;1099;104076;-80
2021/09/27 01:49:02;;;;;;;24.00;11.50;;;;;;;13.44;72.81;101075.77;126247;1099;104174;-79
2021/09/27 01:51:44;;;;;;;22.00;11.27;;;;;;;13.41;72.81;101071.28;126124;1099;104236;-80
2021/09/27 01:54:26;;;;;;;20.17;11.00;;;;;;;13.41;73.26;101081.83;126193;1099;104242;-79
2021/09/27 01:57:05;;;;;;;21.43;11.07;;;;;;;13.41;73.12;101078.31;126228;1099;104300;-80
2021/09/27 01:59:43;;;;;;;25.13;11.67;;;;;;;13.39;73.49;101080.89;126123;1099;104387;-78
2021/09/27 02:02:21;;;;;;;22.57;11.23;;;;;;;13.39;73.70;101078.26;125399;1099;108357;-80
2021/09/27 02:05:03;;;;;;;23.03;11.57;;;;;;;13.37;73.14;101085.23;126298;1099;104140;-80
2021/09/27 02:07:42;;;;;;;20.00;10.73;;;;;;;13.32;73.54;101081.48;126347;1098;104238;-79
2021/09/27 02:10:17;;;;;;;21.90;11.67;;;;;;;13.30;73.23;101078.80;126327;1097;104175;-80
2021/09/27 02:12:56;;;;;;;26.43;11.87;;;;;;;13.30;73.45;101077.91;126318;1099;104268;-78
2021/09/27 02:15:34;;;;;;;22.17;11.37;;;;;;;13.29;73.34;101073.47;126235;1099;104140;-79
2021/09/27 02:18:10;;;;;;;25.45;11.15;;;;;;;13.26;73.29;101081.28;126338;1099;104274;-78
2021/09/27 02:20:46;;;;;;;23.77;11.03;;;;;;;13.25;73.10;101076.88;126350;1099;104152;-79
2021/09/27 02:23:23;;;;;;;22.93;10.90;;;;;;;13.26;73.28;101076.00;126349;1099;104169;-80
2021/09/27 02:25:55;;;;;;;20.40;10.75;;;;;;;13.25;73.24;101082.14;126321;1099;104207;-78
2021/09/27 02:28:28;;;;;;;23.00;11.47;;;;;;;13.21;73.57;101089.02;126316;1097;104303;-78
2021/09/27 02:31:08;;;;;;;23.80;11.30;;;;;;;13.19;73.48;101085.45;126283;1098;104159;-78
2021/09/27 02:33:51;;;;;;;22.17;11.20;;;;;;;13.12;73.90;101083.47;126337;1099;104242;-79
2021/09/27 02:36:26;;;;;;;22.97;11.47;;;;;;;13.06;73.59;101091.16;126347;1099;104168;-79
2021/09/27 02:39:04;;;;;;;22.30;11.87;;;;;;;13.06;73.79;101088.52;126347;1099;104342;-80
2021/09/27 02:41:41;;;;;;;23.37;11.73;;;;;;;13.03;73.49;101093.69;126230;1099;104197;-80
2021/09/27 02:44:12;;;;;;;22.67;11.20;;;;;;;13.02;73.89;101089.25;126373;1099;104146;-79
2021/09/27 02:46:53;;;;;;;23.07;11.17;;;;;;;13.01;73.96;101092.71;126351;1099;104152;-79
2021/09/27 02:49:28;;;;;;;23.87;11.63;;;;;;;12.97;73.85;101089.08;126363;1098;104146;-82
2021/09/27 02:52:01;;;;;;;24.60;11.43;;;;;;;12.94;74.14;101094.24;126344;1099;104141;-81
2021/09/27 02:54:44;;;;;;;23.42;11.65;;;;;;;12.91;73.76;101094.13;125248;1100;104147;-80
2021/09/27 02:57:45;;;;;;;23.83;11.20;;;;;;;12.89;73.65;101101.98;125307;1099;104309;-80
2021/09/27 03:00:20;;;;;;;22.97;11.33;;;;;;;12.85;73.92;101097.43;125356;1099;104162;-80
2021/09/27 03:03:09;;;;;;;22.63;11.47;;;;;;;12.84;73.62;101098.30;125255;1099;104258;-80
2021/09/27 03:05:55;;;;;;;22.85;11.55;;;;;;;12.84;74.09;101098.30;125382;1099;104376;-81
2021/09/27 03:08:41;;;;;;;22.67;11.57;;;;;;;12.83;74.11;101096.49;125259;1099;104159;-81
2021/09/27 03:11:25;;;;;;;22.80;10.83;;;;;;;12.82;74.40;101092.05;125256;1099;104226;-80
2021/09/27 03:14:14;;;;;;;25.05;11.45;;;;;;;12.79;73.98;101085.80;126101;1099;109467;-82
2021/09/27 03:16:55;;;;;;;23.13;10.70;;;;;;;12.77;74.34;101091.00;126345;1099;104201;-80
2021/09/27 03:19:43;;;;;;;25.13;10.83;;;;;;;12.72;74.26;101095.22;126354;1099;104142;-80
2021/09/27 03:22:36;;;;;;;20.40;10.57;;;;;;;12.71;74.36;101085.52;126346;1099;104447;-79
2021/09/27 03:25:27;;;;;;;25.23;10.97;;;;;;;12.68;74.21;101093.30;126292;1099;104210;-79
2021/09/27 03:28:14;;;;;;;23.63;10.50;;;;;;;12.61;74.08;101089.55;126324;1099;104207;-80
2021/09/27 03:30:58;;;;;;;22.80;10.43;;;;;;;12.56;74.19;101093.77;126391;1099;104176;-81
2021/09/27 03:41:05;;;;;;;21.27;11.80;;;;;;;12.36;73.97;101100.91;125214;1102;104351;-79
2021/09/27 03:43:48;;;;;;;22.70;11.53;;;;;;;12.28;74.19;101103.25;125212;1102;104206;-80
2021/09/27 03:46:30;;;;;;;23.90;12.27;;;;;;;12.22;74.32;101106.53;125296;1102;104262;-81
2021/09/27 03:49:06;;;;;;;24.63;12.07;;;;;;;12.19;74.37;101101.14;125311;1102;104786;-81
2021/09/27 03:51:42;;;;;;;29.13;12.57;;;;;;;12.25;74.62;101099.58;125281;1102;104389;-81
2021/09/27 03:54:19;;;;;;;27.47;11.83;;;;;;;12.29;74.61;101104.13;125277;1102;104037;-80
2021/09/27 03:56:56;;;;;;;28.13;11.93;;;;;;;12.31;74.57;101110.34;125272;1102;104147;-79
2021/09/27 03:59:34;;;;;;;24.93;11.83;;;;;;;12.27;74.52;101105.82;125343;1102;105293;-80
2021/09/27 04:02:13;;;;;;;21.53;11.50;;;;;;;12.19;74.40;101106.41;125313;1102;104226;-80
2021/09/27 04:04:58;;;;;;;27.30;11.60;;;;;;;12.11;74.63;101113.11;125205;1102;104249;-80
2021/09/27 04:07:47;;;;;;;29.17;12.83;;;;;;;12.07;74.43;101108.56;125299;1102;104227;-81
2021/09/27 04:10:23;;;;;;;24.33;11.20;;;;;;;12.02;74.56;101107.48;125323;1102;104146;-80
2021/09/27 04:13:08;;;;;;;24.70;10.53;;;;;;;12.01;74.86;101108.31;125245;1101;104178;-80
2021/09/27 04:16:01;;;;;;;23.53;11.93;;;;;;;11.98;74.65;101110.83;125975;1099;104252;-80
2021/09/27 04:18:50;;;;;;;24.50;11.53;;;;;;;11.96;74.84;101115.14;126227;1099;104141;-80
2021/09/27 04:21:25;;;;;;;26.13;12.30;;;;;;;11.92;74.68;101119.39;126323;1099;104192;-79
2021/09/27 04:24:10;;;;;;;23.97;11.10;;;;;;;11.90;74.89;101114.86;126242;1099;104299;-80
2021/09/27 04:27:00;;;;;;;25.53;11.63;;;;;;;11.85;74.83;101112.92;126320;1099;104232;-82
2021/09/27 04:29:57;;;;;;;23.93;11.60;;;;;;;11.81;74.83;101116.29;126256;1099;104149;-81
2021/09/27 04:32:44;;;;;;;22.77;11.40;;;;;;;11.78;74.88;101117.88;126289;1099;104309;-80
2021/09/27 04:35:26;;;;;;;25.40;11.60;;;;;;;11.76;75.09;101115.19;126117;1098;104235;-79
2021/09/27 04:37:57;;;;;;;26.97;12.40;;;;;;;11.75;75.04;101123.92;126257;1099;104214;-79
2021/09/27 04:40:47;;;;;;;28.60;13.23;;;;;;;11.74;75.00;101124.75;126229;1099;104137;-78
2021/09/27 04:43:29;;;;;;;27.30;12.70;;;;;;;11.75;74.80;101128.27;126185;1099;104140;-79
2021/09/27 04:46:11;;;;;;;23.90;11.50;;;;;;;11.76;75.23;101125.70;126208;1099;107021;-79
2021/09/27 04:49:05;;;;;;;24.27;12.30;;;;;;;11.77;75.22;101129.25;126267;1099;102021;-79
2021/09/27 04:51:48;;;;;;;26.87;12.50;;;;;;;11.80;75.15;101135.52;126139;1099;104249;-79
2021/09/27 04:54:42;;;;;;;23.63;11.73;;;;;;;11.85;75.00;101126.08;126212;1098;104168;-78
2021/09/27 04:57:25;;;;;;;25.60;11.22;;;;;;;11.81;74.99;101126.80;126254;1099;104205;-77
2021/09/27 05:00:16;;;;;;;24.23;11.27;;;;;;;11.79;75.15;101125.83;126157;1099;104257;-77
2021/09/27 05:03:07;;;;;;;24.97;11.07;;;;;;;11.74;75.03;101127.38;126274;1099;104229;-78
2021/09/27 05:05:58;;;;;;;25.47;10.53;;;;;;;11.69;75.02;101139.45;126326;1099;104177;-78
2021/09/27 05:08:58;;;;;;;24.60;12.03;;;;;;;11.64;75.05;101133.08;126292;1099;104153;-78
2021/09/27 05:11:55;;;;;;;23.33;11.30;;;;;;;11.63;75.23;101139.20;126283;1099;104210;-79
2021/09/27 05:14:49;;;;;;;26.60;11.10;;;;;;;11.63;75.12;101136.56;126169;1098;104322;-78
2021/09/27 05:17:37;;;;;;;27.65;11.03;;;;;;;11.64;75.49;101136.62;126157;1099;104238;-77
2021/09/27 05:20:21;;;;;;;23.43;11.80;;;;;;;11.67;75.29;101130.58;126276;1099;104665;-78
2021/09/27 05:23:06;;;;;;;25.20;11.15;;;;;;;11.70;75.32;101130.70;126152;1099;104150;-77
2021/09/27 05:26:04;;;;;;;25.00;10.57;;;;;;;11.72;75.46;101125.52;126016;1099;104284;-78
2021/09/27 05:28:55;;;;;;;;;;;;;;;11.76;75.35;101128.33;126161;1099;104152;-79
2021/09/27 05:31:51;;;;;;;26.37;10.63;;;;;;;11.81;75.43;101124.17;126061;1099;104219;-80
2021/09/27 05:34:34;;;;;;;23.87;10.83;;;;;;;11.87;75.23;101128.77;126133;1099;104739;-78
2021/09/27 05:37:26;;;;;;;23.02;10.20;;;;;;;11.92;75.16;101140.42;126272;1098;104252;-77
2021/09/27 05:40:20;;;;;;;24.17;10.40;;;;;;;11.95;75.37;101142.27;126149;1099;104181;-77
2021/09/27 05:43:10;;;;;;;33.47;11.07;;;;;;;12.00;75.26;101138.99;126121;1099;104318;-77
2021/09/27 05:45:55;;;;;;;26.90;12.00;;;;;;;12.06;75.39;101140.98;126266;1099;104223;-78
2021/09/27 05:48:32;;;;;;;23.20;10.63;;;;;;;12.11;75.29;101143.80;126137;1097;104191;-79
2021/09/27 05:51:33;;;;;;;22.07;10.73;;;;;;;12.17;75.22;101142.30;126247;1099;104245;-80
2021/09/27 05:54:22;;;;;;;25.93;10.10;;;;;;;12.25;75.23;101144.31;125994;1099;104309;-78
2021/09/27 05:57:01;;;;;;;22.90;10.33;;;;;;;12.31;75.20;101141.92;125916;1099;104188;-79
2021/09/27 05:59:45;;;;;;;22.50;9.57;;;;;;;12.35;75.40;101138.58;126097;1099;104131;-78
2021/09/27 06:02:37;;;;;;;22.82;10.00;;;;;;;12.38;75.14;101143.97;126050;1099;104267;-78
2021/09/27 06:05:26;;;;;;;22.73;9.20;;;;;;;12.44;74.97;101151.20;126086;1099;104314;-80
2021/09/27 06:08:13;;;;;;;23.47;9.57;;;;;;;12.51;75.11;101145.32;126011;1099;117747;-78
2021/09/27 06:10:58;;;;;;;21.90;9.13;;;;;;;12.63;75.11;101142.27;126090;1099;104302;-79
2021/09/27 06:13:36;;;;;;;25.17;10.33;;;;;;;12.65;75.35;101132.68;126193;1099;104153;-78
2021/09/27 06:16:22;;;;;;;22.03;10.10;;;;;;;12.79;74.78;101152.52;126178;1099;104217;-78
2021/09/27 06:19:05;;;;;;;26.90;9.93;;;;;;;12.87;74.59;101151.08;126026;1099;104220;-77
2021/09/27 06:22:04;;;;;;;23.90;10.10;;;;;;;12.96;75.00;101150.50;126151;1099;104292;-77
2021/09/27 06:24:48;;;;;;;23.63;9.73;;;;;;;13.03;74.52;101143.74;126222;1099;104319;-77
2021/09/27 06:27:29;;;;;;;26.13;10.17;;;;;;;13.12;74.20;101151.98;126044;1099;104144;-78
2021/09/27 06:30:10;;;;;;;25.00;8.83;;;;;;;13.19;74.38;101147.81;125936;1099;104213;-77
2021/09/27 06:32:55;;;;;;;25.70;9.80;;;;;;;13.27;74.13;101152.48;126046;1099;104264;-78
2021/09/27 06:35:32;;;;;;;21.67;9.97;;;;;;;13.36;74.28;101151.95;126085;1099;104250;-78
2021/09/27 06:38:14;;;;;;;27.07;10.33;;;;;;;13.44;74.12;101154.86;126040;1099;104309;-79
2021/09/27 06:41:00;;;;;;;26.77;9.90;;;;;;;13.54;73.82;101156.06;126164;1099;104213;-80
2021/09/27 06:43:32;;;;;;;25.25;11.57;;;;;;;13.64;74.04;101153.80;126034;1099;104191;-80
2021/09/27 06:46:13;;;;;;;23.15;10.55;;;;;;;13.73;73.99;101157.57;125202;1099;104171;-80
2021/09/27 06:48:46;;;;;;;23.97;9.30;;;;;;;13.85;74.38;101157.98;125134;1102;104201;-76
2021/09/27 06:51:22;;;;;;;22.17;9.90;;;;;;;13.96;73.47;101153.97;125052;1102;104230;-76
2021/09/27 06:53:54;;;;;;;20.90;7.77;;;;;;;14.06;72.75;101156.91;125130;1099;104303;-76
2021/09/27 06:59:22;;;;;;;22.73;8.47;;;;;;;14.25;72.71;101163.66;125140;1099;104296;-77
2021/09/27 07:01:57;;;;;;;23.30;8.80;;;;;;;14.36;72.54;101167.52;125124;1099;104370;-77
2021/09/27 07:04:40;;;;;;;20.43;7.57;;;;;;;14.49;72.98;101163.50;125133;1099;104405;-77
2021/09/27 07:07:12;;;;;;;16.00;6.60;;;;;;;14.58;71.61;101165.53;125217;1099;104287;-78
2021/09/27 07:09:46;;;;;;;16.00;7.23;;;;;;;14.64;70.51;101163.99;125209;1100;110589;-79
2021/09/27 07:12:20;;;;;;;17.37;6.50;;;;;;;14.78;72.02;101171.44;125224;1099;104366;-79
2021/09/27 07:15:00;;;;;;;17.40;6.23;;;;;;;14.89;70.06;101173.52;125226;1102;104255;-78
2021/09/27 07:17:30;;;;;;;17.67;6.43;;;;;;;14.99;70.70;101172.06;125400;1099;104325;-78
2021/09/27 07:20:07;;;;;;;16.03;6.73;;;;;;;15.14;70.02;101170.70;126192;1099;104629;-79
2021/09/27 07:22:42;;;;;;;17.73;6.73;;;;;;;15.20;68.11;101182.33;126190;1099;104156;-78
2021/09/27 07:25:17;;;;;;;16.17;6.40;;;;;;;15.34;68.61;101174.77;126144;1099;104739;-78
2021/09/27 07:27:50;;;;;;;21.17;6.50;;;;;;;15.52;69.78;101170.81;125215;1099;104195;-78
2021/09/27 07:30:23;;;;;;;23.23;8.13;;;;;;;15.63;69.79;101161.44;125135;1099;106984;-79
2021/09/27 07:33:00;;;;;;;36.50;8.90;;;;;;;15.76;69.33;101168.80;125139;1102;104478;-79
2021/09/27 07:35:34;;;;;;;17.63;6.13;;;;;;;15.87;69.14;101162.93;125161;1099;104287;-80
2021/09/27 07:38:07;;;;;;;17.75;6.00;;;;;;;15.88;67.68;101160.33;125181;1099;104219;-79
2021/09/27 07:40:39;;;;;;;20.17;6.30;;;;;;;15.94;68.27;101165.77;125306;1099;119191;-79
2021/09/27 07:43:12;;;;;;;21.77;10.13;;;;;;;16.07;67.81;101161.66;125139;1099;104351;-78
2021/09/27 07:45:51;;;;;;;15.90;6.33;;;;;;;16.22;68.36;101168.16;125752;1099;104213;-78
2021/09/27 07:48:26;;;;;;;16.43;5.70;;;;;;;16.34;67.98;101168.44;125948;1099;104223;-79
2021/09/27 07:50:56;;;;;;;17.17;6.00;;;;;;;16.44;67.71;101164.23;126034;1099;104223;-77
2021/09/27 07:53:30;;;;;;;11.13;4.70;;;;;;;16.47;63.81;101156.36;126042;1099;104136;-78
2021/09/27 07:56:07;;;;;;;12.15;5.20;;;;;;;16.44;63.47;101154.56;126019;1099;104242;-78
2021/09/27 07:58:45;;;;;;;15.25;4.65;;;;;;;16.48;64.68;101153.74;126092;1099;104197;-79
2021/09/27 08:01:19;;;;;;;14.30;4.80;;;;;;;16.54;64.65;101151.23;126127;1097;110062;-79
2021/09/27 08:03:51;;;;;;;16.07;5.00;;;;;;;16.60;64.10;101160.20;126219;1099;104140;-79
2021/09/27 08:06:23;;;;;;;16.23;4.63;;;;;;;16.66;63.66;101160.33;126184;1099;104146;-78
2021/09/27 08:08:54;;;;;;;10.43;4.23;;;;;;;16.65;62.72;101155.87;126176;1099;104185;-79
2021/09/27 08:11:28;;;;;;;12.50;4.63;;;;;;;16.65;62.35;101161.18;126305;1099;104137;-78
2021/09/27 08:14:09;;;;;;;14.37;4.63;;;;;;;16.65;62.58;101156.76;126260;1099;104191;-81
2021/09/27 08:16:43;;;;;;;13.37;5.27;;;;;;;16.79;62.48;101151.75;126192;1099;104290;-79
2021/09/27 08:19:24;;;;;;;12.10;4.53;;;;;;;16.95;62.79;101163.59;126057;1099;104213;-78
2021/09/27 08:21:59;;;;;;;13.77;5.13;;;;;;;17.01;62.30;101162.83;126014;1099;104485;-81
2021/09/27 08:24:34;;;;;;;11.00;4.63;;;;;;;17.02;61.62;101154.02;126151;1099;104159;-79
2021/09/27 08:27:13;;;;;;;18.07;5.20;;;;;;;17.13;62.30;101154.23;126205;1099;104133;-81
2021/09/27 08:29:48;;;;;;;16.17;5.13;;;;;;;17.23;62.11;101154.44;126060;1099;104239;-80
2021/09/27 08:32:22;;;;;;;13.70;5.03;;;;;;;17.34;61.23;101153.72;126077;1099;104284;-78
2021/09/27 08:35:03;;;;;;;12.20;4.50;;;;;;;17.38;61.28;101159.11;125372;1099;104261;-80
2021/09/27 08:37:37;;;;;;;12.37;4.20;;;;;;;17.46;61.49;101150.41;125375;1099;104150;-80
2021/09/27 08:40:23;;;;;;;14.57;4.80;;;;;;;17.52;60.80;101150.52;126060;1099;104175;-79
2021/09/27 08:42:54;;;;;;;;;;;;;;;17.58;58.11;101146.20;126140;1099;104175;-80
2021/09/27 08:45:33;;;;;;;13.15;3.75;;;;;;;17.64;57.97;101147.17;126100;1099;104141;-79
2021/09/27 08:48:21;;;;;;;9.13;3.60;;;;;;;17.58;56.87;101140.90;125953;1099;104249;-80
2021/09/27 08:50:55;;;;;;;11.23;3.80;;;;;;;17.65;58.02;101148.97;125920;1099;104146;-80
2021/09/27 08:53:37;;;;;;;11.90;4.00;;;;;;;17.77;58.44;101142.09;126019;1099;104751;-79
2021/09/27 08:56:17;;;;;;;11.27;3.93;;;;;;;17.81;57.30;101139.48;126048;1098;104246;-77
2021/09/27 08:59:02;;;;;;;13.93;3.80;;;;;;;17.90;57.49;101137.02;125126;1102;104278;-78
2021/09/27 09:01:45;;;;;;;11.67;4.10;;;;;;;17.92;57.92;101132.61;125366;1099;104358;-78
2021/09/27 09:04:37;;;;;;;12.77;4.33;;;;;;;17.99;57.74;101146.91;125727;1099;102743;-78
2021/09/27 09:07:20;;;;;;;9.17;3.30;;;;;;;18.06;57.29;101148.77;125892;1099;104155;-78
2021/09/27 09:09:58;;;;;;;10.60;3.53;;;;;;;18.18;57.26;101138.33;125903;1099;104169;-78
2021/09/27 09:12:37;;;;;;;11.73;3.20;;;;;;;18.27;57.38;101134.92;125797;1097;118701;-78
2021/09/27 09:15:17;;;;;;;10.63;3.53;;;;;;;18.44;57.10;101130.72;125075;1099;104393;-78
2021/09/27 09:18:02;;;;;;;11.77;3.57;;;;;;;18.64;56.71;101133.65;125095;1099;104433;-80
2021/09/27 09:20:44;;;;;;;10.43;3.47;;;;;;;18.87;56.79;101133.08;125097;1099;104291;-77
2021/09/27 09:23:22;;;;;;;9.45;3.50;;;;;;;19.06;56.98;101128.86;125806;1099;104265;-80
2021/09/27 09:25:59;;;;;;;9.97;3.53;;;;;;;19.09;54.01;101126.23;126013;1099;104198;-77
2021/09/27 09:28:36;;;;;;;10.63;3.50;;;;;;;19.04;54.65;101123.52;126003;1099;104049;-78
2021/09/27 09:31:16;;;;;;;8.20;4.00;;;;;;;19.07;53.23;101116.44;125981;1099;104201;-77
2021/09/27 09:33:52;;;;;;;6.77;3.20;;;;;;;19.02;53.67;101122.59;125940;1099;104178;-79
2021/09/27 09:36:39;;;;;;;7.50;3.40;;;;;;;18.97;53.77;101116.34;126184;1099;104210;-79
2021/09/27 09:39:20;;;;;;;9.83;3.50;;;;;;;19.01;53.90;101118.16;126277;1099;104320;-79
2021/09/27 09:41:56;;;;;;;11.57;3.30;;;;;;;19.03;53.25;101124.38;125197;1099;104197;-76
2021/09/27 09:44:41;;;;;;;10.03;3.77;;;;;;;18.89;53.57;101126.00;126208;1099;104175;-79
2021/09/27 09:47:26;;;;;;;9.60;3.45;;;;;;;18.69;52.92;101123.07;126016;1099;104134;-77
2021/09/27 09:50:03;;;;;;;8.20;3.60;;;;;;;18.49;53.33;101123.70;126153;1099;104178;-79
2021/09/27 09:52:45;;;;;;;11.43;3.90;;;;;;;18.36;53.11;101121.77;125986;1099;104272;-79
2021/09/27 09:55:34;;;;;;;10.03;3.80;;;;;;;18.24;53.27;101125.13;126087;1099;104146;-77
2021/09/27 09:58:12;;;;;;;9.60;3.63;;;;;;;18.13;53.33;101119.66;126090;1099;104663;-77
2021/09/27 10:00:56;;;;;;;12.87;4.00;;;;;;;18.10;53.46;101118.73;126080;1099;104589;-78
2021/09/27 10:03:38;;;;;;;11.33;3.50;;;;;;;18.33;53.40;101122.61;125920;1098;104637;-78
2021/09/27 10:06:25;;;;;;;14.23;3.87;;;;;;;18.59;53.20;101115.84;125240;1099;104891;-78
2021/09/27 10:09:05;;;;;;;12.23;3.90;;;;;;;18.78;52.46;101114.33;125193;1099;104181;-78
2021/09/27 10:11:41;;;;;;;9.10;3.63;;;;;;;18.91;51.59;101105.63;125918;1097;104281;-80
2021/09/27 10:14:25;;;;;;;8.57;3.47;;;;;;;18.92;50.35;101101.23;125809;1099;104159;-78
2021/09/27 10:17:08;;;;;;;7.70;3.73;;;;;;;18.95;50.98;101101.27;125798;1099;104650;-78
2021/09/27 10:19:54;;;;;;;14.23;3.50;;;;;;;19.12;50.98;101099.66;126012;1099;104191;-78
2021/09/27 10:22:40;;;;;;;9.77;3.60;;;;;;;19.21;51.06;101086.45;125793;1099;104416;-78
2021/09/27 10:25:27;;;;;;;12.90;3.30;;;;;;;19.39;51.41;101082.17;125084;1099;104191;-77
2021/09/27 10:28:12;;;;;;;9.57;3.40;;;;;;;19.56;51.17;101079.66;125088;1099;104258;-77
2021/09/27 10:30:47;;;;;;;5.13;2.93;;;;;;;19.65;50.25;101079.73;125075;1102;104198;-78
2021/09/27 10:33:25;;;;;;;8.03;3.30;;;;;;;19.59;49.88;101074.35;125081;1099;104304;-78
2021/09/27 10:36:03;;;;;;;11.37;3.80;;;;;;;19.70;50.00;101066.45;125159;1099;104329;-78
2021/09/27 10:38:42;;;;;;;10.03;3.80;;;;;;;19.77;49.41;101072.73;125168;1099;104156;-78
2021/09/27 10:41:22;;;;;;;9.83;3.80;;;;;;;19.75;48.95;101064.70;125095;1099;104203;-78
2021/09/27 10:44:07;;;;;;;8.88;3.58;;;;;;;19.74;48.72;101061.16;125204;1102;105349;-79
2021/09/27 10:46:47;;;;;;;11.17;3.90;;;;;;;19.77;48.06;101064.74;125266;1099;104155;-79
2021/09/27 10:49:39;;;;;;;12.17;3.50;;;;;;;19.75;48.32;101060.25;125080;1099;104153;-79
2021/09/27 10:52:26;;;;;;;7.20;2.93;;;;;;;19.80;49.44;101056.78;125318;1099;104303;-78
2021/09/27 10:55:25;;;;;;;7.03;2.83;;;;;;;19.85;47.17;101052.36;125271;1099;109440;-80
2021/09/27 10:58:01;;;;;;;9.70;3.33;;;;;;;19.83;47.54;101057.67;126131;1099;104153;-78
2021/09/27 11:00:41;;;;;;;8.63;3.27;;;;;;;19.81;47.84;101050.58;126148;1098;104270;-80
2021/09/27 11:03:22;;;;;;;10.13;3.57;;;;;;;19.76;46.95;101050.52;125181;1099;104157;-78
2021/09/27 11:06:02;;;;;;;6.90;3.07;;;;;;;19.71;46.41;101053.15;125208;1099;104220;-80
2021/09/27 11:08:51;;;;;;;6.85;3.20;;;;;;;19.78;47.19;101042.58;125324;1099;104175;-80
2021/09/27 11:11:46;;;;;;;10.13;3.30;;;;;;;19.81;46.45;101048.80;125286;1099;104319;-79
2021/09/27 11:14:38;;;;;;;6.67;3.47;;;;;;;19.95;47.06;101054.22;125166;1098;104213;-78
2021/09/27 11:17:31;;;;;;;9.87;3.37;;;;;;;20.00;47.18;101055.13;125086;1099;104473;-76
2021/09/27 11:20:23;;;;;;;9.57;3.33;;;;;;;20.06;47.43;101044.50;125141;1099;104294;-78
2021/09/27 11:23:08;;;;;;;6.17;2.93;;;;;;;20.10;46.23;101048.06;125176;1099;104268;-79
2021/09/27 11:25:42;;;;;;;11.57;3.73;;;;;;;20.12;46.59;101043.66;125130;1099;104175;-78
2021/09/27 11:28:50;;;;;;;9.40;3.50;;;;;;;20.13;46.20;101041.87;125208;1099;104375;-79
2021/09/27 11:31:38;;;;;;;9.60;3.30;;;;;;;20.04;45.83;101043.61;125261;1099;104207;-80
2021/09/27 11:34:43;;;;;;;7.50;3.10;;;;;;;20.07;46.90;101040.05;125395;1099;104172;-78
2021/09/27 11:37:25;;;;;;;10.68;3.55;;;;;;;20.00;45.45;101039.14;126289;1099;104175;-79
2021/09/27 11:40:26;;;;;;;9.40;3.23;;;;;;;19.95;45.44;101030.24;126269;1099;104172;-79
2021/09/27 11:43:09;;;;;;;7.77;3.57;;;;;;;19.80;46.34;101023.05;125547;1099;104143;-79
2021/09/27 11:45:54;;;;;;;9.10;3.67;;;;;;;19.86;46.48;101028.41;126166;1099;104322;-78
2021/09/27 11:48:49;;;;;;;9.03;3.00;;;;;;;19.86;45.41;101030.19;126154;1099;104181;-80
2021/09/27 11:51:41;;;;;;;7.30;3.00;;;;;;;19.81;46.78;101037.27;126270;1099;104179;-80
2021/09/27 11:54:25;;;;;;;9.40;3.40;;;;;;;19.72;44.39;101041.59;126194;1099;104232;-78
2021/09/27 11:57:18;;;;;;;9.03;3.73;;;;;;;19.70;45.17;101030.06;126300;1099;104156;-78
2021/09/27 12:00:08;;;;;;;6.43;3.53;;;;;;;19.72;45.90;101035.39;126283;1099;104197;-79
2021/09/27 12:02:56;;;;;;;10.83;3.67;;;;;;;19.65;45.03;101034.47;126316;1099;104744;-77
2021/09/27 12:05:44;;;;;;;10.47;3.77;;;;;;;19.54;44.98;101033.48;126142;1099;105488;-78
2021/09/27 12:08:24;;;;;;;9.50;3.40;;;;;;;19.46;45.38;101035.20;126264;1099;104220;-80
2021/09/27 12:11:05;;;;;;;8.73;3.80;;;;;;;19.46;45.42;101036.11;126123;1099;104172;-79
2021/09/27 12:13:49;;;;;;;8.87;3.53;;;;;;;19.49;45.87;101028.12;126192;1099;104175;-81